sensor_id;sensor_type;location;lat;lon;timestamp;pressure;altitude;pressure_sealevel;temperature
68588;BMP180;55560;52.174;20.996;2022-09-20T00:01:34;100019.40;;;10.70
68588;BMP180;55560;52.174;20.996;2022-09-20T00:04:03;100024.40;;;10.70
68588;BMP180;55560;52.174;20.996;2022-09-20T00:06:33;100023.00;;;10.70
68588;BMP180;55560;52.174;20.996;2022-09-20T00:09:02;100026.00;;;10.70
68588;BMP180;55560;52.174;20.996;2022-09-20T00:11:32;100024.40;;;10.68
68588;BMP180;55560;52.174;20.996;2022-09-20T00:14:02;100024.80;;;10.60
68588;BMP180;55560;52.174;20.996;2022-09-20T00:16:35;100024.60;;;10.60
68588;BMP180;55560;52.174;20.996;2022-09-20T00:19:05;100025.60;;;10.60
68588;BMP180;55560;52.174;20.996;2022-09-20T00:21:34;100026.00;;;10.58
68588;BMP180;55560;52.174;20.996;2022-09-20T00:24:05;100032.80;;;10.50
68588;BMP180;55560;52.174;20.996;2022-09-20T00:26:33;100037.40;;;10.50
68588;BMP180;55560;52.174;20.996;2022-09-20T00:29:01;100035.40;;;10.50
68588;BMP180;55560;52.174;20.996;2022-09-20T00:31:29;100039.60;;;10.50
68588;BMP180;55560;52.174;20.996;2022-09-20T00:33:58;100038.80;;;10.50
68588;BMP180;55560;52.174;20.996;2022-09-20T00:36:44;100036.00;;;10.50
68588;BMP180;55560;52.174;20.996;2022-09-20T00:39:14;100043.20;;;10.50
68588;BMP180;55560;52.174;20.996;2022-09-20T00:41:42;100037.60;;;10.58
68588;BMP180;55560;52.174;20.996;2022-09-20T00:47:25;100042.40;;;10.50
68588;BMP180;55560;52.174;20.996;2022-09-20T00:52:43;100043.60;;;10.50
68588;BMP180;55560;52.174;20.996;2022-09-20T00:55:12;100046.40;;;10.50
68588;BMP180;55560;52.174;20.996;2022-09-20T00:57:42;100042.40;;;10.60
68588;BMP180;55560;52.174;20.996;2022-09-20T01:00:11;100040.40;;;10.60
68588;BMP180;55560;52.174;20.996;2022-09-20T01:02:48;100037.80;;;10.60
68588;BMP180;55560;52.174;20.996;2022-09-20T01:05:29;100041.60;;;10.60
68588;BMP180;55560;52.174;20.996;2022-09-20T01:07:57;100035.40;;;10.60
68588;BMP180;55560;52.174;20.996;2022-09-20T01:10:25;100035.80;;;10.50
68588;BMP180;55560;52.174;20.996;2022-09-20T01:12:53;100034.80;;;10.50
68588;BMP180;55560;52.174;20.996;2022-09-20T01:15:22;100033.40;;;10.50
68588;BMP180;55560;52.174;20.996;2022-09-20T01:17:52;100036.40;;;10.48
68588;BMP180;55560;52.174;20.996;2022-09-20T01:20:28;100035.20;;;10.40
68588;BMP180;55560;52.174;20.996;2022-09-20T01:24:10;100036.20;;;10.40
68588;BMP180;55560;52.174;20.996;2022-09-20T01:29:22;100050.00;;;10.40
68588;BMP180;55560;52.174;20.996;2022-09-20T01:31:54;100047.60;;;10.44
68588;BMP180;55560;52.174;20.996;2022-09-20T01:37:05;100047.20;;;10.40
68588;BMP180;55560;52.174;20.996;2022-09-20T01:39:57;100047.40;;;10.40
68588;BMP180;55560;52.174;20.996;2022-09-20T01:42:36;100048.60;;;10.40
68588;BMP180;55560;52.174;20.996;2022-09-20T01:48:11;100051.40;;;10.40
68588;BMP180;55560;52.174;20.996;2022-09-20T01:51:26;100050.00;;;10.40
68588;BMP180;55560;52.174;20.996;2022-09-20T02:00:12;100063.00;;;10.40
68588;BMP180;55560;52.174;20.996;2022-09-20T02:11:58;100058.60;;;10.40
68588;BMP180;55560;52.174;20.996;2022-09-20T02:21:39;100059.00;;;10.30
68588;BMP180;55560;52.174;20.996;2022-09-20T02:30:48;100075.00;;;10.22
68588;BMP180;55560;52.174;20.996;2022-09-20T02:34:01;100074.00;;;10.20
68588;BMP180;55560;52.174;20.996;2022-09-20T02:40:19;100070.00;;;10.20
68588;BMP180;55560;52.174;20.996;2022-09-20T02:43:17;100068.60;;;10.20
68588;BMP180;55560;52.174;20.996;2022-09-20T02:48:46;100074.60;;;10.20
68588;BMP180;55560;52.174;20.996;2022-09-20T02:51:29;100075.80;;;10.20
68588;BMP180;55560;52.174;20.996;2022-09-20T02:54:20;100072.20;;;10.20
68588;BMP180;55560;52.174;20.996;2022-09-20T02:57:04;100072.40;;;10.12
68588;BMP180;55560;52.174;20.996;2022-09-20T03:05:29;100076.80;;;10.10
68588;BMP180;55560;52.174;20.996;2022-09-20T03:08:43;100080.40;;;10.10
68588;BMP180;55560;52.174;20.996;2022-09-20T03:11:36;100078.40;;;10.10
68588;BMP180;55560;52.174;20.996;2022-09-20T03:14:35;100077.40;;;10.10
68588;BMP180;55560;52.174;20.996;2022-09-20T03:17:30;100078.20;;;10.10
68588;BMP180;55560;52.174;20.996;2022-09-20T03:29:08;100080.40;;;10.10
68588;BMP180;55560;52.174;20.996;2022-09-20T03:46:50;100096.80;;;10.10
68588;BMP180;55560;52.174;20.996;2022-09-20T03:49:59;100088.60;;;10.10
68588;BMP180;55560;52.174;20.996;2022-09-20T04:04:00;100102.20;;;10.10
68588;BMP180;55560;52.174;20.996;2022-09-20T04:12:21;100097.80;;;10.10
68588;BMP180;55560;52.174;20.996;2022-09-20T04:17:51;100102.00;;;10.10
68588;BMP180;55560;52.174;20.996;2022-09-20T04:23:03;100111.20;;;10.10
68588;BMP180;55560;52.174;20.996;2022-09-20T04:25:42;100112.40;;;10.10
68588;BMP180;55560;52.174;20.996;2022-09-20T04:28:29;100117.60;;;10.10
68588;BMP180;55560;52.174;20.996;2022-09-20T04:31:13;100118.40;;;10.10
68588;BMP180;55560;52.174;20.996;2022-09-20T04:33:49;100117.40;;;10.18
68588;BMP180;55560;52.174;20.996;2022-09-20T04:39:46;100134.80;;;10.20
68588;BMP180;55560;52.174;20.996;2022-09-20T05:00:23;100145.00;;;10.20
68588;BMP180;55560;52.174;20.996;2022-09-20T05:03:44;100149.80;;;10.20
68588;BMP180;55560;52.174;20.996;2022-09-20T05:06:27;100159.20;;;10.20
68588;BMP180;55560;52.174;20.996;2022-09-20T05:15:26;100167.20;;;10.20
68588;BMP180;55560;52.174;20.996;2022-09-20T05:24:09;100181.80;;;10.22
68588;BMP180;55560;52.174;20.996;2022-09-20T05:30:00;100186.40;;;10.20
68588;BMP180;55560;52.174;20.996;2022-09-20T05:32:51;100186.20;;;10.30
68588;BMP180;55560;52.174;20.996;2022-09-20T05:35:38;100188.20;;;10.30
68588;BMP180;55560;52.174;20.996;2022-09-20T05:38:46;100191.00;;;10.30
68588;BMP180;55560;52.174;20.996;2022-09-20T05:41:55;100197.20;;;10.40
68588;BMP180;55560;52.174;20.996;2022-09-20T05:47:21;100205.00;;;10.40
68588;BMP180;55560;52.174;20.996;2022-09-20T06:02:25;100204.80;;;10.50
68588;BMP180;55560;52.174;20.996;2022-09-20T06:05:12;100208.80;;;10.50
68588;BMP180;55560;52.174;20.996;2022-09-20T06:20:27;100215.80;;;10.60
68588;BMP180;55560;52.174;20.996;2022-09-20T06:22:58;100220.60;;;10.50
68588;BMP180;55560;52.174;20.996;2022-09-20T06:28:18;100226.80;;;10.50
68588;BMP180;55560;52.174;20.996;2022-09-20T06:30:49;100229.40;;;10.60
68588;BMP180;55560;52.174;20.996;2022-09-20T06:33:21;100228.80;;;10.60
68588;BMP180;55560;52.174;20.996;2022-09-20T06:39:37;100233.00;;;10.60
68588;BMP180;55560;52.174;20.996;2022-09-20T06:42:26;100236.40;;;10.64
68588;BMP180;55560;52.174;20.996;2022-09-20T06:44:56;100236.20;;;10.70
68588;BMP180;55560;52.174;20.996;2022-09-20T06:47:24;100241.80;;;10.70
68588;BMP180;55560;52.174;20.996;2022-09-20T06:49:52;100238.60;;;10.70
68588;BMP180;55560;52.174;20.996;2022-09-20T06:52:21;100242.60;;;10.70
68588;BMP180;55560;52.174;20.996;2022-09-20T06:54:52;100240.20;;;10.70
68588;BMP180;55560;52.174;20.996;2022-09-20T06:57:34;100239.00;;;10.70
68588;BMP180;55560;52.174;20.996;2022-09-20T07:00:05;100243.00;;;10.70
68588;BMP180;55560;52.174;20.996;2022-09-20T07:02:33;100244.40;;;10.78
68588;BMP180;55560;52.174;20.996;2022-09-20T07:05:01;100244.40;;;10.80
68588;BMP180;55560;52.174;20.996;2022-09-20T07:07:29;100249.20;;;10.90
68588;BMP180;55560;52.174;20.996;2022-09-20T07:09:56;100252.20;;;11.00
68588;BMP180;55560;52.174;20.996;2022-09-20T07:12:27;100263.20;;;11.00
68588;BMP180;55560;52.174;20.996;2022-09-20T07:14:55;100263.80;;;11.10
68588;BMP180;55560;52.174;20.996;2022-09-20T07:17:24;100267.20;;;11.10
68588;BMP180;55560;52.174;20.996;2022-09-20T07:19:52;100269.00;;;11.20
68588;BMP180;55560;52.174;20.996;2022-09-20T07:22:20;100276.00;;;11.20
68588;BMP180;55560;52.174;20.996;2022-09-20T07:24:47;100276.40;;;11.30
68588;BMP180;55560;52.174;20.996;2022-09-20T07:27:15;100280.20;;;11.30
68588;BMP180;55560;52.174;20.996;2022-09-20T07:29:43;100283.60;;;11.30
68588;BMP180;55560;52.174;20.996;2022-09-20T07:32:12;100287.60;;;11.30
68588;BMP180;55560;52.174;20.996;2022-09-20T07:34:41;100290.80;;;11.30
68588;BMP180;55560;52.174;20.996;2022-09-20T07:37:09;100289.20;;;11.30
68588;BMP180;55560;52.174;20.996;2022-09-20T07:39:38;100293.00;;;11.30
68588;BMP180;55560;52.174;20.996;2022-09-20T07:42:06;100297.00;;;11.30
68588;BMP180;55560;52.174;20.996;2022-09-20T07:44:33;100296.60;;;11.40
68588;BMP180;55560;52.174;20.996;2022-09-20T07:47:01;100299.00;;;11.40
68588;BMP180;55560;52.174;20.996;2022-09-20T07:49:29;100303.40;;;11.40
68588;BMP180;55560;52.174;20.996;2022-09-20T07:51:57;100302.60;;;11.40
68588;BMP180;55560;52.174;20.996;2022-09-20T07:54:25;100302.60;;;11.50
68588;BMP180;55560;52.174;20.996;2022-09-20T07:56:56;100304.20;;;11.54
68588;BMP180;55560;52.174;20.996;2022-09-20T07:59:24;100307.40;;;11.60
68588;BMP180;55560;52.174;20.996;2022-09-20T08:01:52;100307.40;;;11.60
68588;BMP180;55560;52.174;20.996;2022-09-20T08:04:20;100308.40;;;11.60
68588;BMP180;55560;52.174;20.996;2022-09-20T08:06:47;100306.40;;;11.60
68588;BMP180;55560;52.174;20.996;2022-09-20T08:09:15;100308.80;;;11.70
68588;BMP180;55560;52.174;20.996;2022-09-20T08:11:43;100314.40;;;11.80
68588;BMP180;55560;52.174;20.996;2022-09-20T08:14:15;100314.00;;;11.90
68588;BMP180;55560;52.174;20.996;2022-09-20T08:16:46;100316.00;;;12.00
68588;BMP180;55560;52.174;20.996;2022-09-20T08:19:20;100314.00;;;12.10
68588;BMP180;55560;52.174;20.996;2022-09-20T08:21:51;100319.60;;;12.18
68588;BMP180;55560;52.174;20.996;2022-09-20T08:24:22;100320.60;;;12.20
68588;BMP180;55560;52.174;20.996;2022-09-20T08:26:52;100323.20;;;12.28
68588;BMP180;55560;52.174;20.996;2022-09-20T08:29:20;100325.00;;;12.40
68588;BMP180;55560;52.174;20.996;2022-09-20T08:31:48;100323.00;;;12.50
68588;BMP180;55560;52.174;20.996;2022-09-20T08:34:16;100332.20;;;12.40
68588;BMP180;55560;52.174;20.996;2022-09-20T08:36:45;100337.40;;;12.40
68588;BMP180;55560;52.174;20.996;2022-09-20T08:39:14;100336.80;;;12.30
68588;BMP180;55560;52.174;20.996;2022-09-20T08:42:38;100336.20;;;12.30
68588;BMP180;55560;52.174;20.996;2022-09-20T08:45:17;100338.60;;;12.30
68588;BMP180;55560;52.174;20.996;2022-09-20T08:48:05;100341.60;;;12.40
68588;BMP180;55560;52.174;20.996;2022-09-20T08:50:35;100340.40;;;12.36
68588;BMP180;55560;52.174;20.996;2022-09-20T08:53:04;100340.00;;;12.40
68588;BMP180;55560;52.174;20.996;2022-09-20T08:55:32;100340.60;;;12.50
68588;BMP180;55560;52.174;20.996;2022-09-20T08:58:04;100342.40;;;12.60
68588;BMP180;55560;52.174;20.996;2022-09-20T09:00:37;100344.00;;;12.60
68588;BMP180;55560;52.174;20.996;2022-09-20T09:03:13;100343.00;;;12.60
68588;BMP180;55560;52.174;20.996;2022-09-20T09:05:52;100346.00;;;12.60
68588;BMP180;55560;52.174;20.996;2022-09-20T09:08:34;100348.00;;;12.62
68588;BMP180;55560;52.174;20.996;2022-09-20T09:11:16;100347.00;;;12.60
68588;BMP180;55560;52.174;20.996;2022-09-20T09:14:09;100344.20;;;12.50
68588;BMP180;55560;52.174;20.996;2022-09-20T09:16:57;100349.80;;;12.50
68588;BMP180;55560;52.174;20.996;2022-09-20T09:19:30;100350.80;;;12.50
68588;BMP180;55560;52.174;20.996;2022-09-20T09:22:03;100357.80;;;12.60
68588;BMP180;55560;52.174;20.996;2022-09-20T09:24:32;100357.60;;;12.64
68588;BMP180;55560;52.174;20.996;2022-09-20T09:29:53;100357.80;;;12.60
68588;BMP180;55560;52.174;20.996;2022-09-20T09:32:30;100352.80;;;12.60
68588;BMP180;55560;52.174;20.996;2022-09-20T09:35:27;100357.40;;;12.50
68588;BMP180;55560;52.174;20.996;2022-09-20T09:37:59;100356.60;;;12.50
68588;BMP180;55560;52.174;20.996;2022-09-20T09:40:30;100357.00;;;12.50
68588;BMP180;55560;52.174;20.996;2022-09-20T09:43:01;100358.80;;;12.50
68588;BMP180;55560;52.174;20.996;2022-09-20T09:45:36;100361.00;;;12.60
68588;BMP180;55560;52.174;20.996;2022-09-20T09:48:36;100362.40;;;12.72
68588;BMP180;55560;52.174;20.996;2022-09-20T09:51:15;100364.00;;;12.88
68588;BMP180;55560;52.174;20.996;2022-09-20T09:53:46;100366.40;;;13.00
68588;BMP180;55560;52.174;20.996;2022-09-20T10:13:26;100370.80;;;12.90
68588;BMP180;55560;52.174;20.996;2022-09-20T10:25:06;100370.60;;;13.32
68588;BMP180;55560;52.174;20.996;2022-09-20T10:28:23;100370.40;;;13.40
68588;BMP180;55560;52.174;20.996;2022-09-20T10:31:18;100375.80;;;13.50
68588;BMP180;55560;52.174;20.996;2022-09-20T10:34:11;100376.80;;;13.60
68588;BMP180;55560;52.174;20.996;2022-09-20T10:36:55;100368.00;;;13.70
68588;BMP180;55560;52.174;20.996;2022-09-20T10:39:36;100371.80;;;13.70
68588;BMP180;55560;52.174;20.996;2022-09-20T10:45:32;100369.40;;;13.90
68588;BMP180;55560;52.174;20.996;2022-09-20T10:48:40;100371.40;;;14.00
68588;BMP180;55560;52.174;20.996;2022-09-20T10:51:25;100372.80;;;14.10
68588;BMP180;55560;52.174;20.996;2022-09-20T10:54:40;100374.40;;;14.12
68588;BMP180;55560;52.174;20.996;2022-09-20T10:57:47;100366.60;;;14.20
68588;BMP180;55560;52.174;20.996;2022-09-20T11:00:58;100370.40;;;14.36
68588;BMP180;55560;52.174;20.996;2022-09-20T11:03:42;100370.00;;;14.50
68588;BMP180;55560;52.174;20.996;2022-09-20T11:06:50;100367.80;;;14.50
68588;BMP180;55560;52.174;20.996;2022-09-20T11:09:26;100374.00;;;14.50
68588;BMP180;55560;52.174;20.996;2022-09-20T11:12:12;100371.40;;;14.50
68588;BMP180;55560;52.174;20.996;2022-09-20T11:14:55;100372.40;;;14.26
68588;BMP180;55560;52.174;20.996;2022-09-20T11:21:04;100372.60;;;14.22
68588;BMP180;55560;52.174;20.996;2022-09-20T11:24:04;100370.20;;;14.38
68588;BMP180;55560;52.174;20.996;2022-09-20T11:27:06;100367.40;;;14.40
68588;BMP180;55560;52.174;20.996;2022-09-20T11:30:03;100368.20;;;14.50
68588;BMP180;55560;52.174;20.996;2022-09-20T11:32:39;100379.00;;;14.70
68588;BMP180;55560;52.174;20.996;2022-09-20T11:37:47;100372.80;;;14.90
68588;BMP180;55560;52.174;20.996;2022-09-20T11:40:31;100376.20;;;14.90
68588;BMP180;55560;52.174;20.996;2022-09-20T11:43:04;100371.00;;;15.00
68588;BMP180;55560;52.174;20.996;2022-09-20T11:45:37;100375.20;;;15.20
68588;BMP180;55560;52.174;20.996;2022-09-20T11:48:38;100377.40;;;15.20
68588;BMP180;55560;52.174;20.996;2022-09-20T11:51:35;100370.00;;;15.30
68588;BMP180;55560;52.174;20.996;2022-09-20T11:54:23;100368.60;;;15.50
68588;BMP180;55560;52.174;20.996;2022-09-20T11:56:55;100371.20;;;15.60
68588;BMP180;55560;52.174;20.996;2022-09-20T11:59:39;100368.20;;;15.70
68588;BMP180;55560;52.174;20.996;2022-09-20T12:05:28;100365.60;;;15.80
68588;BMP180;55560;52.174;20.996;2022-09-20T12:08:03;100366.20;;;16.00
68588;BMP180;55560;52.174;20.996;2022-09-20T12:10:36;100362.40;;;16.20
68588;BMP180;55560;52.174;20.996;2022-09-20T12:13:22;100366.00;;;16.40
68588;BMP180;55560;52.174;20.996;2022-09-20T12:16:41;100363.00;;;16.54
68588;BMP180;55560;52.174;20.996;2022-09-20T12:24:32;100363.00;;;16.60
68588;BMP180;55560;52.174;20.996;2022-09-20T12:27:20;100359.80;;;16.48
68588;BMP180;55560;52.174;20.996;2022-09-20T12:29:52;100363.20;;;16.50
68588;BMP180;55560;52.174;20.996;2022-09-20T12:32:44;100363.80;;;16.50
68588;BMP180;55560;52.174;20.996;2022-09-20T12:38:29;100360.80;;;16.60
68588;BMP180;55560;52.174;20.996;2022-09-20T12:41:14;100352.00;;;16.80
68588;BMP180;55560;52.174;20.996;2022-09-20T12:46:38;100351.40;;;17.10
68588;BMP180;55560;52.174;20.996;2022-09-20T12:49:25;100354.60;;;17.30
68588;BMP180;55560;52.174;20.996;2022-09-20T13:09:02;100351.60;;;18.82
68588;BMP180;55560;52.174;20.996;2022-09-20T13:11:46;100353.20;;;19.08
68588;BMP180;55560;52.174;20.996;2022-09-20T13:16:51;100359.00;;;19.50
68588;BMP180;55560;52.174;20.996;2022-09-20T13:22:25;100360.00;;;19.90
68588;BMP180;55560;52.174;20.996;2022-09-20T13:25:02;100357.40;;;20.00
68588;BMP180;55560;52.174;20.996;2022-09-20T13:30:26;100363.40;;;20.40
68588;BMP180;55560;52.174;20.996;2022-09-20T13:32:55;100365.00;;;20.40
68588;BMP180;55560;52.174;20.996;2022-09-20T13:35:27;100367.60;;;20.42
68588;BMP180;55560;52.174;20.996;2022-09-20T13:38:04;100373.00;;;20.30
68588;BMP180;55560;52.174;20.996;2022-09-20T13:40:42;100380.80;;;19.92
68588;BMP180;55560;52.174;20.996;2022-09-20T13:43:36;100381.60;;;19.60
68588;BMP180;55560;52.174;20.996;2022-09-20T13:46:09;100383.20;;;19.30
68588;BMP180;55560;52.174;20.996;2022-09-20T13:48:38;100376.00;;;19.00
68588;BMP180;55560;52.174;20.996;2022-09-20T13:51:19;100385.00;;;18.70
68588;BMP180;55560;52.174;20.996;2022-09-20T13:53:50;100384.60;;;18.40
68588;BMP180;55560;52.174;20.996;2022-09-20T13:56:28;100393.20;;;18.20
68588;BMP180;55560;52.174;20.996;2022-09-20T13:59:02;100394.40;;;17.92
68588;BMP180;55560;52.174;20.996;2022-09-20T14:01:33;100395.80;;;17.60
68588;BMP180;55560;52.174;20.996;2022-09-20T14:04:07;100391.60;;;17.40
68588;BMP180;55560;52.174;20.996;2022-09-20T14:06:40;100390.40;;;17.10
68588;BMP180;55560;52.174;20.996;2022-09-20T14:09:28;100387.60;;;16.82
68588;BMP180;55560;52.174;20.996;2022-09-20T14:11:57;100386.60;;;16.62
68588;BMP180;55560;52.174;20.996;2022-09-20T14:14:26;100384.80;;;16.40
68588;BMP180;55560;52.174;20.996;2022-09-20T14:16:56;100388.00;;;16.20
68588;BMP180;55560;52.174;20.996;2022-09-20T14:19:33;100385.60;;;16.00
68588;BMP180;55560;52.174;20.996;2022-09-20T14:22:04;100379.60;;;15.80
68588;BMP180;55560;52.174;20.996;2022-09-20T14:24:35;100380.20;;;15.64
68588;BMP180;55560;52.174;20.996;2022-09-20T14:27:17;100381.20;;;15.50
68588;BMP180;55560;52.174;20.996;2022-09-20T14:29:49;100384.00;;;15.38
68588;BMP180;55560;52.174;20.996;2022-09-20T14:34:57;100380.20;;;15.20
68588;BMP180;55560;52.174;20.996;2022-09-20T14:40:02;100379.40;;;15.10
68588;BMP180;55560;52.174;20.996;2022-09-20T14:42:50;100378.00;;;15.00
68588;BMP180;55560;52.174;20.996;2022-09-20T14:45:29;100377.80;;;15.00
68588;BMP180;55560;52.174;20.996;2022-09-20T14:48:32;100386.40;;;14.90
68588;BMP180;55560;52.174;20.996;2022-09-20T14:53:49;100383.40;;;14.86
68588;BMP180;55560;52.174;20.996;2022-09-20T14:56:35;100385.20;;;14.80
68588;BMP180;55560;52.174;20.996;2022-09-20T14:59:26;100387.20;;;14.68
68588;BMP180;55560;52.174;20.996;2022-09-20T15:02:12;100393.40;;;14.60
68588;BMP180;55560;52.174;20.996;2022-09-20T15:04:51;100397.40;;;14.60
68588;BMP180;55560;52.174;20.996;2022-09-20T15:07:21;100398.60;;;14.60
68588;BMP180;55560;52.174;20.996;2022-09-20T15:09:48;100401.40;;;14.60
68588;BMP180;55560;52.174;20.996;2022-09-20T15:12:19;100404.20;;;14.60
68588;BMP180;55560;52.174;20.996;2022-09-20T15:14:48;100407.00;;;14.60
68588;BMP180;55560;52.174;20.996;2022-09-20T15:17:19;100415.60;;;14.60
68588;BMP180;55560;52.174;20.996;2022-09-20T15:19:48;100423.60;;;14.60
68588;BMP180;55560;52.174;20.996;2022-09-20T15:22:16;100426.80;;;14.64
68588;BMP180;55560;52.174;20.996;2022-09-20T15:24:44;100425.80;;;14.60
68588;BMP180;55560;52.174;20.996;2022-09-20T15:27:15;100431.60;;;14.60
68588;BMP180;55560;52.174;20.996;2022-09-20T15:29:45;100433.00;;;14.60
68588;BMP180;55560;52.174;20.996;2022-09-20T15:32:13;100443.80;;;14.60
68588;BMP180;55560;52.174;20.996;2022-09-20T15:34:41;100441.20;;;14.50
68588;BMP180;55560;52.174;20.996;2022-09-20T15:37:08;100442.00;;;14.50
68588;BMP180;55560;52.174;20.996;2022-09-20T15:39:36;100443.20;;;14.50
68588;BMP180;55560;52.174;20.996;2022-09-20T15:42:04;100437.20;;;14.40
68588;BMP180;55560;52.174;20.996;2022-09-20T15:44:33;100427.40;;;14.40
68588;BMP180;55560;52.174;20.996;2022-09-20T15:47:01;100426.20;;;14.40
68588;BMP180;55560;52.174;20.996;2022-09-20T15:49:31;100427.20;;;14.40
68588;BMP180;55560;52.174;20.996;2022-09-20T15:51:59;100428.40;;;14.40
68588;BMP180;55560;52.174;20.996;2022-09-20T15:54:28;100435.60;;;14.40
68588;BMP180;55560;52.174;20.996;2022-09-20T15:56:56;100447.20;;;14.40
68588;BMP180;55560;52.174;20.996;2022-09-20T15:59:25;100459.20;;;14.40
68588;BMP180;55560;52.174;20.996;2022-09-20T16:01:53;100456.60;;;14.40
68588;BMP180;55560;52.174;20.996;2022-09-20T16:04:21;100457.00;;;14.40
68588;BMP180;55560;52.174;20.996;2022-09-20T16:06:50;100462.80;;;14.30
68588;BMP180;55560;52.174;20.996;2022-09-20T16:09:18;100457.40;;;14.30
68588;BMP180;55560;52.174;20.996;2022-09-20T16:11:46;100454.20;;;14.24
68588;BMP180;55560;52.174;20.996;2022-09-20T16:14:15;100454.60;;;14.20
68588;BMP180;55560;52.174;20.996;2022-09-20T16:16:43;100456.60;;;14.14
68588;BMP180;55560;52.174;20.996;2022-09-20T16:19:11;100460.40;;;14.10
68588;BMP180;55560;52.174;20.996;2022-09-20T16:21:50;100468.00;;;14.10
68588;BMP180;55560;52.174;20.996;2022-09-20T16:24:32;100464.00;;;14.00
68588;BMP180;55560;52.174;20.996;2022-09-20T16:27:05;100464.80;;;14.00
68588;BMP180;55560;52.174;20.996;2022-09-20T16:29:33;100470.40;;;13.90
68588;BMP180;55560;52.174;20.996;2022-09-20T16:32:02;100470.80;;;13.90
68588;BMP180;55560;52.174;20.996;2022-09-20T16:34:33;100469.20;;;13.82
68588;BMP180;55560;52.174;20.996;2022-09-20T16:37:11;100471.60;;;13.82
68588;BMP180;55560;52.174;20.996;2022-09-20T16:39:42;100473.40;;;13.80
68588;BMP180;55560;52.174;20.996;2022-09-20T16:42:11;100477.40;;;13.80
68588;BMP180;55560;52.174;20.996;2022-09-20T16:44:41;100475.40;;;13.70
68588;BMP180;55560;52.174;20.996;2022-09-20T16:47:14;100473.60;;;13.62
68588;BMP180;55560;52.174;20.996;2022-09-20T16:49:49;100477.60;;;13.60
68588;BMP180;55560;52.174;20.996;2022-09-20T16:52:18;100478.00;;;13.60
68588;BMP180;55560;52.174;20.996;2022-09-20T16:54:46;100481.60;;;13.52
68588;BMP180;55560;52.174;20.996;2022-09-20T16:57:14;100483.20;;;13.50
68588;BMP180;55560;52.174;20.996;2022-09-20T16:59:42;100478.40;;;13.50
68588;BMP180;55560;52.174;20.996;2022-09-20T17:02:10;100480.00;;;13.40
68588;BMP180;55560;52.174;20.996;2022-09-20T17:04:39;100479.60;;;13.40
68588;BMP180;55560;52.174;20.996;2022-09-20T17:07:10;100487.00;;;13.38
68588;BMP180;55560;52.174;20.996;2022-09-20T17:09:38;100491.80;;;13.30
68588;BMP180;55560;52.174;20.996;2022-09-20T17:12:06;100495.20;;;13.30
68588;BMP180;55560;52.174;20.996;2022-09-20T17:14:36;100503.00;;;13.30
68588;BMP180;55560;52.174;20.996;2022-09-20T17:17:04;100504.80;;;13.30
68588;BMP180;55560;52.174;20.996;2022-09-20T17:19:31;100507.80;;;13.22
68588;BMP180;55560;52.174;20.996;2022-09-20T17:22:00;100512.40;;;13.20
68588;BMP180;55560;52.174;20.996;2022-09-20T17:24:28;100515.40;;;13.20
68588;BMP180;55560;52.174;20.996;2022-09-20T17:26:56;100521.00;;;13.20
68588;BMP180;55560;52.174;20.996;2022-09-20T17:29:25;100519.00;;;13.20
68588;BMP180;55560;52.174;20.996;2022-09-20T17:31:54;100519.80;;;13.20
68588;BMP180;55560;52.174;20.996;2022-09-20T17:34:26;100520.60;;;13.20
68588;BMP180;55560;52.174;20.996;2022-09-20T17:36:56;100523.80;;;13.20
68588;BMP180;55560;52.174;20.996;2022-09-20T17:39:24;100520.80;;;13.14
68588;BMP180;55560;52.174;20.996;2022-09-20T17:41:52;100528.40;;;13.10
68588;BMP180;55560;52.174;20.996;2022-09-20T17:44:20;100530.60;;;13.10
68588;BMP180;55560;52.174;20.996;2022-09-20T17:46:49;100532.60;;;13.00
68588;BMP180;55560;52.174;20.996;2022-09-20T17:49:22;100532.80;;;13.00
68588;BMP180;55560;52.174;20.996;2022-09-20T17:51:53;100533.60;;;13.00
68588;BMP180;55560;52.174;20.996;2022-09-20T17:54:22;100538.20;;;13.00
68588;BMP180;55560;52.174;20.996;2022-09-20T17:56:52;100539.00;;;13.00
68588;BMP180;55560;52.174;20.996;2022-09-20T17:59:22;100544.00;;;13.00
68588;BMP180;55560;52.174;20.996;2022-09-20T18:01:51;100543.60;;;13.00
68588;BMP180;55560;52.174;20.996;2022-09-20T18:04:21;100543.40;;;13.00
68588;BMP180;55560;52.174;20.996;2022-09-20T18:06:52;100543.40;;;13.00
68588;BMP180;55560;52.174;20.996;2022-09-20T18:09:23;100547.40;;;12.96
68588;BMP180;55560;52.174;20.996;2022-09-20T18:11:54;100554.20;;;12.90
68588;BMP180;55560;52.174;20.996;2022-09-20T18:14:26;100551.40;;;12.90
68588;BMP180;55560;52.174;20.996;2022-09-20T18:16:57;100548.20;;;12.90
68588;BMP180;55560;52.174;20.996;2022-09-20T18:19:28;100550.80;;;12.90
68588;BMP180;55560;52.174;20.996;2022-09-20T18:22:01;100552.60;;;12.80
68588;BMP180;55560;52.174;20.996;2022-09-20T18:24:30;100554.00;;;12.80
68588;BMP180;55560;52.174;20.996;2022-09-20T18:26:58;100557.20;;;12.78
68588;BMP180;55560;52.174;20.996;2022-09-20T18:29:27;100562.60;;;12.74
68588;BMP180;55560;52.174;20.996;2022-09-20T18:31:56;100567.40;;;12.70
68588;BMP180;55560;52.174;20.996;2022-09-20T18:34:27;100568.00;;;12.70
68588;BMP180;55560;52.174;20.996;2022-09-20T18:37:00;100569.40;;;12.64
68588;BMP180;55560;52.174;20.996;2022-09-20T18:39:32;100571.60;;;12.60
68588;BMP180;55560;52.174;20.996;2022-09-20T18:42:01;100573.00;;;12.60
68588;BMP180;55560;52.174;20.996;2022-09-20T18:44:30;100577.20;;;12.60
68588;BMP180;55560;52.174;20.996;2022-09-20T18:47:03;100572.20;;;12.50
68588;BMP180;55560;52.174;20.996;2022-09-20T18:49:32;100576.60;;;12.50
68588;BMP180;55560;52.174;20.996;2022-09-20T18:52:01;100585.60;;;12.50
68588;BMP180;55560;52.174;20.996;2022-09-20T18:54:30;100585.20;;;12.40